Time;durP1;ratioP1;P1;durP2;ratioP2;P2;SDS_P1;SDS_P2;PMS_P1;PMS_P2;Temp;Humidity;BMP_temperature;BMP_pressure;BME280_temperature;BME280_humidity;BME280_pressure;Samples;Min_cycle;Max_cycle;Signal;HPM_P1;HPM_P2
2023/04/17 00:01:39;;;;;;;34.53;21.45;;;11.60;99.90;;;;;;5059147;28;20057;-81
2023/04/17 00:04:09;;;;;;;28.85;19.48;;;11.50;99.90;;;;;;5076180;28;20127;-81
2023/04/17 00:06:36;;;;;;;31.17;20.15;;;11.40;99.90;;;;;;5093699;28;20021;-81
2023/04/17 00:09:01;;;;;;;32.75;19.40;;;11.40;99.90;;;;;;5058903;28;20055;-81
2023/04/17 00:11:27;;;;;;;27.05;17.63;;;11.40;99.90;;;;;;5075226;28;20032;-81
2023/04/17 00:13:53;;;;;;;29.17;19.65;;;11.50;99.90;;;;;;5058820;28;20081;-81
2023/04/17 00:16:18;;;;;;;24.65;17.08;;;11.50;99.90;;;;;;5075480;28;20028;-81
2023/04/17 00:18:44;;;;;;;26.65;17.02;;;11.60;99.90;;;;;;5075489;28;20384;-81
2023/04/17 00:21:10;;;;;;;27.50;17.33;;;11.70;99.90;;;;;;5059043;28;20372;-80
2023/04/17 00:23:35;;;;;;;31.60;20.27;;;11.70;99.90;;;;;;5059247;28;20024;-80
2023/04/17 00:26:01;;;;;;;28.02;18.60;;;11.70;99.90;;;;;;5093226;28;20056;-80
2023/04/17 00:28:27;;;;;;;29.95;20.00;;;11.70;99.90;;;;;;5075344;28;20452;-80
2023/04/17 00:30:53;;;;;;;32.75;19.73;;;11.70;99.90;;;;;;5058825;28;20032;-80
2023/04/17 00:33:18;;;;;;;30.42;19.52;;;11.60;99.90;;;;;;5075811;28;20032;-80
2023/04/17 00:35:44;;;;;;;29.40;19.23;;;11.60;99.90;;;;;;5059510;28;20112;-80
2023/04/17 00:38:10;;;;;;;28.45;17.60;;;11.60;99.90;;;;;;5046574;28;20024;-80
2023/04/17 00:40:35;;;;;;;28.23;17.60;;;11.60;99.90;;;;;;5062578;28;20050;-80
2023/04/17 00:43:02;;;;;;;31.42;20.27;;;11.70;99.90;;;;;;5080150;28;20468;-80
2023/04/17 00:45:32;;;;;;;29.00;19.27;;;11.80;99.90;;;;;;5079872;28;20123;-80
2023/04/17 00:47:58;;;;;;;30.77;19.33;;;11.80;99.90;;;;;;5079048;28;20043;-80
2023/04/17 00:50:26;;;;;;;32.42;20.23;;;11.80;99.90;;;;;;5079319;28;20039;-80
2023/04/17 00:52:52;;;;;;;27.60;19.77;;;11.80;99.90;;;;;;5065143;28;20029;-80
2023/04/17 00:55:19;;;;;;;27.20;18.92;;;11.80;99.90;;;;;;5046827;28;20032;-80
2023/04/17 00:57:47;;;;;;;30.58;18.73;;;11.80;99.90;;;;;;5097130;28;20024;-80
2023/04/17 01:00:13;;;;;;;30.52;20.60;;;11.90;99.90;;;;;;5063160;28;20048;-80
2023/04/17 01:02:39;;;;;;;30.45;19.67;;;11.90;99.90;;;;;;5098207;28;20082;-80
2023/04/17 01:05:05;;;;;;;32.30;20.38;;;11.80;99.90;;;;;;5083268;28;20494;-80
2023/04/17 01:07:30;;;;;;;29.83;19.92;;;11.80;99.90;;;;;;5099975;28;20029;-80
2023/04/17 01:09:56;;;;;;;25.95;18.13;;;11.80;99.90;;;;;;5062192;28;20391;-80
2023/04/17 01:12:24;;;;;;;29.65;19.60;;;11.80;99.90;;;;;;5078978;28;20384;-80
2023/04/17 01:14:50;;;;;;;30.55;20.27;;;11.80;99.90;;;;;;5062728;28;20032;-80
2023/04/17 01:17:18;;;;;;;30.77;21.00;;;11.70;99.90;;;;;;5078708;28;20056;-81
2023/04/17 01:19:44;;;;;;;32.10;20.10;;;11.80;99.90;;;;;;5078685;28;20032;-81
2023/04/17 01:22:10;;;;;;;29.73;20.10;;;11.80;99.90;;;;;;5079173;28;20338;-80
2023/04/17 01:24:36;;;;;;;36.33;22.90;;;11.80;99.90;;;;;;5061644;28;20073;-80
2023/04/17 01:27:02;;;;;;;30.23;19.40;;;11.70;99.90;;;;;;5062371;28;20142;-80
2023/04/17 01:29:28;;;;;;;29.88;19.10;;;11.70;99.90;;;;;;5078439;28;20476;-81
2023/04/17 01:31:53;;;;;;;32.75;20.25;;;11.80;99.90;;;;;;5096458;28;20039;-80
2023/04/17 01:34:19;;;;;;;29.65;19.17;;;11.90;99.90;;;;;;5045558;28;20028;-80
2023/04/17 01:36:45;;;;;;;37.78;21.75;;;12.00;99.90;;;;;;5062492;28;20028;-80
2023/04/17 01:39:11;;;;;;;36.80;23.30;;;12.00;99.90;;;;;;5061598;28;20514;-80
2023/04/17 01:41:36;;;;;;;29.58;20.60;;;11.90;99.90;;;;;;5061173;28;20024;-80
2023/04/17 01:44:02;;;;;;;32.90;22.23;;;11.80;99.90;;;;;;5061355;28;20032;-80
2023/04/17 01:46:28;;;;;;;33.75;23.10;;;11.80;99.90;;;;;;5096448;28;20035;-80
2023/04/17 01:48:53;;;;;;;33.95;22.00;;;11.80;99.90;;;;;;5061280;28;20036;-80
2023/04/17 01:51:19;;;;;;;37.40;23.90;;;11.70;99.90;;;;;;5082334;28;20051;-80
2023/04/17 01:53:45;;;;;;;34.95;21.70;;;11.60;99.90;;;;;;5097910;28;20028;-80
2023/04/17 01:56:12;;;;;;;37.15;22.73;;;11.60;99.90;;;;;;5062227;28;20032;-80
2023/04/17 01:58:38;;;;;;;32.92;20.85;;;11.60;99.90;;;;;;5078386;28;20126;-80
2023/04/17 02:01:04;;;;;;;37.05;22.83;;;11.80;99.90;;;;;;5083617;28;20024;-80
2023/04/17 02:03:30;;;;;;;34.78;22.67;;;11.90;99.90;;;;;;5079743;28;20031;-80
2023/04/17 02:05:56;;;;;;;37.60;22.35;;;11.90;99.90;;;;;;5047962;28;20040;-80
2023/04/17 02:08:22;;;;;;;32.97;21.45;;;11.90;99.90;;;;;;5082095;28;20036;-80
2023/04/17 02:10:48;;;;;;;39.08;25.92;;;11.90;99.90;;;;;;5064019;28;20028;-80
2023/04/17 02:13:13;;;;;;;36.63;23.85;;;11.90;99.90;;;;;;5079137;28;20380;-80
2023/04/17 02:15:39;;;;;;;33.85;21.40;;;11.80;99.90;;;;;;5079413;28;20115;-80
2023/04/17 02:18:05;;;;;;;36.15;23.55;;;11.70;99.90;;;;;;5065393;28;20025;-80
2023/04/17 02:20:38;;;;;;;41.83;25.40;;;11.70;99.90;;;;;;5067134;28;20040;-81
2023/04/17 02:23:05;;;;;;;41.95;25.95;;;11.60;99.90;;;;;;5101328;28;20460;-80
2023/04/17 02:25:31;;;;;;;39.85;25.50;;;11.50;99.90;;;;;;5098896;28;20031;-81
2023/04/17 02:27:57;;;;;;;46.55;26.63;;;11.30;99.90;;;;;;5061450;28;20166;-81
2023/04/17 02:30:24;;;;;;;47.60;26.77;;;11.30;99.90;;;;;;5077929;28;20110;-81
2023/04/17 02:32:51;;;;;;;41.15;25.67;;;11.20;99.90;;;;;;5060505;28;20484;-81
2023/04/17 02:35:19;;;;;;;38.80;24.27;;;11.20;99.90;;;;;;5077534;28;20027;-81
2023/04/17 02:37:45;;;;;;;45.35;27.08;;;11.20;99.90;;;;;;5077396;28;20101;-81
2023/04/17 02:40:11;;;;;;;43.70;27.02;;;11.20;99.90;;;;;;5095256;28;20437;-81
2023/04/17 02:42:36;;;;;;;37.35;22.90;;;11.10;99.90;;;;;;5079988;28;20033;-80
2023/04/17 02:45:03;;;;;;;39.92;25.98;;;11.10;99.90;;;;;;5098081;28;20024;-80
2023/04/17 02:47:29;;;;;;;41.45;25.52;;;11.10;99.90;;;;;;5063880;28;20043;-81
2023/04/17 02:49:55;;;;;;;40.15;25.98;;;11.10;99.90;;;;;;5077187;28;20032;-81
2023/04/17 02:52:21;;;;;;;31.85;20.33;;;11.00;99.90;;;;;;5060683;28;20127;-82
2023/04/17 02:54:47;;;;;;;40.42;25.80;;;11.00;99.90;;;;;;5049591;28;20027;-81
2023/04/17 02:57:13;;;;;;;39.60;23.92;;;11.00;99.90;;;;;;5081949;28;20366;-81
2023/04/17 02:59:38;;;;;;;38.97;26.15;;;10.90;99.90;;;;;;5082202;28;20070;-81
2023/04/17 03:02:04;;;;;;;33.28;22.45;;;10.80;99.90;;;;;;5047061;28;20035;-81
2023/04/17 03:04:33;;;;;;;27.98;20.92;;;10.60;99.90;;;;;;5047034;28;20027;-81
2023/04/17 03:06:59;;;;;;;37.47;24.50;;;10.60;99.90;;;;;;5078078;28;20472;-81
2023/04/17 03:09:24;;;;;;;36.97;25.38;;;10.70;99.90;;;;;;5066385;28;20032;-80
2023/04/17 03:11:50;;;;;;;35.15;23.52;;;10.70;99.90;;;;;;5079474;28;20035;-81
2023/04/17 03:14:16;;;;;;;37.80;25.85;;;10.60;99.90;;;;;;5078635;28;20028;-81
2023/04/17 03:16:42;;;;;;;37.47;24.27;;;10.40;99.90;;;;;;5043069;28;20099;-81
2023/04/17 03:19:07;;;;;;;34.72;22.40;;;10.20;99.90;;;;;;5059647;28;20066;-81
2023/04/17 03:21:33;;;;;;;34.33;23.90;;;10.30;99.90;;;;;;5076215;28;20039;-81
2023/04/17 03:23:59;;;;;;;31.02;20.13;;;10.40;99.90;;;;;;5094441;28;20430;-81
2023/04/17 03:26:25;;;;;;;32.38;22.10;;;10.40;99.90;;;;;;5060452;28;20034;-81
2023/04/17 03:28:50;;;;;;;33.92;23.35;;;10.60;99.90;;;;;;5094783;28;20027;-81
2023/04/17 03:31:16;;;;;;;30.10;21.60;;;10.60;99.90;;;;;;5094175;28;20032;-81
2023/04/17 03:33:42;;;;;;;30.58;22.17;;;10.60;99.90;;;;;;5075857;28;20028;-81
2023/04/17 03:36:07;;;;;;;32.17;21.77;;;10.60;99.90;;;;;;5042724;28;20028;-81
2023/04/17 03:38:34;;;;;;;30.95;20.13;;;10.60;99.90;;;;;;5075597;28;20488;-81
2023/04/17 03:41:00;;;;;;;32.38;21.60;;;10.70;99.90;;;;;;5059315;28;20081;-81
2023/04/17 03:43:26;;;;;;;29.85;20.58;;;10.80;99.90;;;;;;5076531;28;20032;-81
2023/04/17 03:45:52;;;;;;;30.02;21.17;;;10.90;99.90;;;;;;5058935;28;20059;-81
2023/04/17 03:48:17;;;;;;;36.45;23.17;;;10.90;99.90;;;;;;5059166;28;20151;-81
2023/04/17 03:50:43;;;;;;;35.75;23.25;;;10.90;99.90;;;;;;5059006;28;20058;-81
2023/04/17 03:53:09;;;;;;;30.58;22.08;;;10.80;99.90;;;;;;5094854;28;20085;-81
2023/04/17 03:55:35;;;;;;;35.30;22.67;;;10.80;99.90;;;;;;5061347;28;20101;-80
2023/04/17 03:58:00;;;;;;;35.65;24.33;;;10.80;99.90;;;;;;5060602;28;20034;-81
2023/04/17 04:00:27;;;;;;;30.52;21.23;;;10.70;99.90;;;;;;5060578;28;20079;-80
2023/04/17 04:02:53;;;;;;;37.13;23.55;;;10.70;99.90;;;;;;5047325;28;20055;-80
2023/04/17 04:05:18;;;;;;;41.83;28.13;;;10.80;99.90;;;;;;5080447;28;20035;-81
2023/04/17 04:07:44;;;;;;;32.33;22.67;;;10.70;99.90;;;;;;5078795;28;20118;-81
2023/04/17 04:10:10;;;;;;;40.35;24.77;;;10.80;99.90;;;;;;5077844;28;20043;-80
2023/04/17 04:12:36;;;;;;;37.90;25.17;;;10.80;99.90;;;;;;5072508;28;20380;-81
2023/04/17 04:15:02;;;;;;;37.85;25.42;;;10.70;99.90;;;;;;5085376;28;20040;-81
2023/04/17 04:17:27;;;;;;;40.25;25.83;;;10.50;99.90;;;;;;5083592;28;20077;-80
2023/04/17 04:19:53;;;;;;;35.25;22.73;;;10.40;99.90;;;;;;5052091;28;20070;-81
2023/04/17 04:22:20;;;;;;;36.53;24.25;;;10.40;99.90;;;;;;5066405;28;20100;-80
2023/04/17 04:24:46;;;;;;;38.45;24.45;;;10.30;99.90;;;;;;5083134;28;20025;-81
2023/04/17 04:27:11;;;;;;;37.53;24.67;;;10.30;99.90;;;;;;5082521;28;20024;-81
2023/04/17 04:29:37;;;;;;;41.60;25.77;;;10.40;99.90;;;;;;5048004;28;20491;-81
2023/04/17 04:32:03;;;;;;;33.22;23.00;;;10.40;99.90;;;;;;5080880;28;20035;-81
2023/04/17 04:34:29;;;;;;;31.70;21.45;;;10.50;99.90;;;;;;5081353;28;20061;-81
2023/04/17 04:36:56;;;;;;;38.03;25.17;;;10.70;99.90;;;;;;5082890;28;20067;-81
2023/04/17 04:39:22;;;;;;;38.85;25.73;;;10.80;99.90;;;;;;5047956;28;20107;-80
2023/04/17 04:41:51;;;;;;;36.22;24.10;;;10.80;99.90;;;;;;5081632;28;20024;-81
2023/04/17 04:44:17;;;;;;;38.05;25.17;;;10.80;99.90;;;;;;5065391;28;20039;-80
2023/04/17 04:46:43;;;;;;;41.85;26.02;;;10.80;99.90;;;;;;5066330;28;20046;-81
2023/04/17 04:49:09;;;;;;;40.53;25.25;;;10.70;99.90;;;;;;5065834;28;20555;-81
2023/04/17 04:51:35;;;;;;;41.75;26.23;;;10.50;99.90;;;;;;5081403;28;20395;-81
2023/04/17 04:54:01;;;;;;;42.08;25.95;;;10.50;99.90;;;;;;5064839;28;20035;-81
2023/04/17 04:56:27;;;;;;;38.65;26.27;;;10.50;99.90;;;;;;5102349;28;20024;-80
2023/04/17 04:58:55;;;;;;;44.22;28.05;;;10.60;99.90;;;;;;5084136;28;20052;-80
2023/04/17 05:01:21;;;;;;;40.08;25.17;;;10.40;99.90;;;;;;5084644;28;20407;-80
2023/04/17 05:03:47;;;;;;;37.28;23.58;;;10.20;99.90;;;;;;5067373;28;20468;-80
2023/04/17 05:06:13;;;;;;;40.78;25.40;;;10.40;99.90;;;;;;5068157;28;20034;-80
2023/04/17 05:08:42;;;;;;;45.80;28.23;;;10.50;99.90;;;;;;5082972;28;20085;-81
2023/04/17 05:11:08;;;;;;;42.03;26.40;;;10.50;99.90;;;;;;5102737;28;20120;-81
2023/04/17 05:13:33;;;;;;;45.08;25.92;;;10.50;99.90;;;;;;5087224;28;20115;-81
2023/04/17 05:15:59;;;;;;;43.28;27.30;;;10.50;99.90;;;;;;5067291;28;20085;-80
2023/04/17 05:18:25;;;;;;;40.78;26.33;;;10.50;99.90;;;;;;5049659;28;20345;-81
2023/04/17 05:20:53;;;;;;;39.17;22.55;;;10.60;99.90;;;;;;5087483;28;20028;-80
2023/04/17 05:23:21;;;;;;;40.97;26.00;;;10.60;99.90;;;;;;5106678;28;20028;-81
2023/04/17 05:25:48;;;;;;;39.35;25.10;;;10.70;99.90;;;;;;5072861;28;20028;-80
2023/04/17 05:28:14;;;;;;;43.80;28.63;;;10.80;99.90;;;;;;5105004;28;20024;-80
2023/04/17 05:30:40;;;;;;;39.97;25.73;;;10.60;99.90;;;;;;5085500;28;20036;-81
2023/04/17 05:33:06;;;;;;;40.92;26.02;;;10.50;99.90;;;;;;5071584;28;20028;-80
2023/04/17 05:35:32;;;;;;;43.50;26.67;;;10.50;99.90;;;;;;5083737;28;20028;-81
2023/04/17 05:37:57;;;;;;;48.28;28.30;;;10.60;99.90;;;;;;5082981;28;20123;-79
2023/04/17 05:40:23;;;;;;;45.28;28.35;;;10.60;99.90;;;;;;5050844;28;20085;-80
2023/04/17 05:42:49;;;;;;;43.75;27.75;;;10.60;99.90;;;;;;5085455;28;20039;-80
2023/04/17 05:45:17;;;;;;;46.13;28.05;;;10.50;99.90;;;;;;5069734;28;20464;-79
2023/04/17 05:47:43;;;;;;;47.85;28.38;;;10.40;99.90;;;;;;5068948;28;20035;-82
2023/04/17 05:50:10;;;;;;;46.97;29.38;;;10.30;99.90;;;;;;5067412;28;20127;-80
2023/04/17 05:52:37;;;;;;;38.78;25.23;;;10.40;99.90;;;;;;5079692;28;20035;-81
2023/04/17 05:55:03;;;;;;;46.83;28.08;;;10.50;99.90;;;;;;5086326;28;20028;-81
2023/04/17 05:57:29;;;;;;;41.22;25.92;;;10.50;99.90;;;;;;5062244;28;20067;-80
2023/04/17 05:59:54;;;;;;;45.80;28.77;;;10.50;99.90;;;;;;5079165;28;20067;-81
2023/04/17 06:02:23;;;;;;;43.58;27.98;;;10.60;99.90;;;;;;5065461;28;20024;-78
2023/04/17 06:04:49;;;;;;;39.78;25.80;;;10.50;99.90;;;;;;5064333;28;20460;-81
2023/04/17 06:07:15;;;;;;;41.13;27.02;;;10.60;99.90;;;;;;5062710;28;20067;-81
2023/04/17 06:09:41;;;;;;;42.53;27.38;;;10.60;99.90;;;;;;5078711;28;20123;-81
2023/04/17 06:12:13;;;;;;;39.95;27.27;;;10.60;99.90;;;;;;5062422;28;20119;-80
2023/04/17 06:14:39;;;;;;;46.53;29.77;;;10.50;99.90;;;;;;5097059;28;20050;-79
2023/04/17 06:17:05;;;;;;;42.95;27.92;;;10.20;99.90;;;;;;5095806;28;20036;-78
2023/04/17 06:19:30;;;;;;;39.20;26.63;;;10.10;99.90;;;;;;5060789;28;20032;-78
2023/04/17 06:21:56;;;;;;;44.97;29.02;;;10.20;99.90;;;;;;5060577;28;20028;-78
2023/04/17 06:24:22;;;;;;;42.70;28.20;;;10.30;99.90;;;;;;5078155;28;20032;-80
2023/04/17 06:26:47;;;;;;;43.50;28.30;;;10.20;99.90;;;;;;5096040;28;20039;-80
2023/04/17 06:29:14;;;;;;;40.20;26.52;;;10.10;99.90;;;;;;5061066;28;20491;-75
2023/04/17 06:31:40;;;;;;;45.42;27.98;;;10.10;99.90;;;;;;5060876;28;20040;-75
2023/04/17 06:34:05;;;;;;;38.60;25.27;;;10.30;99.90;;;;;;5075939;28;20070;-74
2023/04/17 06:36:32;;;;;;;36.80;23.00;;;10.40;99.90;;;;;;5094926;28;20144;-75
2023/04/17 06:38:57;;;;;;;45.55;29.05;;;10.50;99.90;;;;;;5060071;28;20384;-74
2023/04/17 06:41:23;;;;;;;43.95;28.20;;;10.50;99.90;;;;;;5076719;28;20043;-75
2023/04/17 06:43:49;;;;;;;47.95;28.25;;;10.40;99.90;;;;;;5095183;28;20112;-73
2023/04/17 06:46:14;;;;;;;44.25;28.33;;;10.40;99.90;;;;;;5076793;28;20108;-74
2023/04/17 06:48:40;;;;;;;42.10;27.60;;;10.30;99.90;;;;;;5094892;28;20036;-75
2023/04/17 06:51:06;;;;;;;45.97;28.65;;;10.30;99.90;;;;;;5059968;28;20082;-75
2023/04/17 06:53:32;;;;;;;39.83;25.75;;;10.30;99.90;;;;;;5076881;28;20036;-77
2023/04/17 06:55:57;;;;;;;40.42;26.27;;;10.20;99.90;;;;;;5095167;28;20114;-76
2023/04/17 06:58:23;;;;;;;50.03;30.70;;;10.30;99.90;;;;;;5059626;28;20124;-76
2023/04/17 07:00:49;;;;;;;45.72;29.20;;;10.30;99.90;;;;;;5059405;28;20071;-76
2023/04/17 07:03:15;;;;;;;49.40;29.70;;;10.30;99.90;;;;;;5059607;28;20051;-76
2023/04/17 07:05:43;;;;;;;50.28;29.58;;;10.40;99.90;;;;;;5078115;28;20460;-81
2023/04/17 07:08:08;;;;;;;47.10;29.30;;;10.50;99.90;;;;;;5078796;28;20024;-74
2023/04/17 07:10:34;;;;;;;46.70;28.75;;;10.50;99.90;;;;;;5076170;28;20391;-74
2023/04/17 07:13:01;;;;;;;48.97;32.08;;;10.50;99.90;;;;;;5076644;28;20064;-74
2023/04/17 07:15:29;;;;;;;49.80;31.52;;;10.40;99.90;;;;;;5060150;28;20024;-74
2023/04/17 07:17:55;;;;;;;43.55;28.30;;;10.40;99.90;;;;;;5076121;28;20391;-74
2023/04/17 07:20:20;;;;;;;55.15;32.78;;;10.50;99.90;;;;;;5094298;28;20107;-74
2023/04/17 07:22:46;;;;;;;57.05;32.28;;;10.50;99.90;;;;;;5076279;28;20031;-75
2023/04/17 07:25:12;;;;;;;54.45;32.00;;;10.60;99.90;;;;;;5075257;28;20053;-75
2023/04/17 07:27:38;;;;;;;47.00;29.65;;;10.60;99.90;;;;;;5093690;28;20025;-76
2023/04/17 07:30:06;;;;;;;58.90;33.83;;;10.60;99.90;;;;;;5058393;28;20028;-75
2023/04/17 07:32:32;;;;;;;53.13;33.05;;;10.60;99.90;;;;;;5059125;28;20547;-73
2023/04/17 07:34:58;;;;;;;53.15;32.83;;;10.50;99.90;;;;;;5076091;28;20111;-75
2023/04/17 07:37:24;;;;;;;52.20;30.65;;;10.50;99.90;;;;;;5042459;28;20032;-76
2023/04/17 07:39:50;;;;;;;54.35;32.40;;;10.60;99.90;;;;;;5058707;28;20514;-74
2023/04/17 07:42:18;;;;;;;52.40;31.50;;;10.70;99.90;;;;;;5077498;28;20032;-80
2023/04/17 07:44:44;;;;;;;50.88;32.30;;;10.80;99.90;;;;;;5085471;28;20472;-80
2023/04/17 07:47:10;;;;;;;50.78;32.85;;;10.80;99.90;;;;;;5085509;28;20028;-82
2023/04/17 07:49:38;;;;;;;49.55;31.75;;;10.70;99.90;;;;;;5084963;28;20043;-75
2023/04/17 07:52:04;;;;;;;45.63;27.05;;;10.70;99.90;;;;;;5075275;28;20036;-74
2023/04/17 07:54:30;;;;;;;53.05;32.22;;;10.80;99.90;;;;;;5094461;28;20031;-75
2023/04/17 07:57:01;;;;;;;49.05;31.92;;;10.80;99.90;;;;;;5042580;28;20101;-75
2023/04/17 07:59:27;;;;;;;50.20;31.33;;;10.80;99.90;;;;;;5075476;28;20511;-74
2023/04/17 08:01:53;;;;;;;48.10;29.77;;;10.70;99.90;;;;;;5058883;28;20024;-74
2023/04/17 08:04:18;;;;;;;37.70;25.38;;;10.80;99.90;;;;;;5093774;28;20453;-75
2023/04/17 08:06:44;;;;;;;53.85;32.83;;;10.90;99.90;;;;;;5075610;28;20060;-74
2023/04/17 08:09:10;;;;;;;47.55;32.15;;;11.00;99.90;;;;;;5078238;28;20028;-81
2023/04/17 08:11:37;;;;;;;50.28;32.20;;;11.00;99.90;;;;;;5051320;28;20039;-81
2023/04/17 08:14:03;;;;;;;63.42;31.80;;;11.00;99.90;;;;;;5059364;28;20038;-78
2023/04/17 08:16:28;;;;;;;49.35;33.30;;;11.10;99.90;;;;;;5064652;28;20048;-82
2023/04/17 08:18:54;;;;;;;48.05;32.40;;;11.00;99.90;;;;;;5064547;28;20039;-81
2023/04/17 08:21:20;;;;;;;49.47;33.17;;;10.90;99.90;;;;;;5077506;28;20074;-78
2023/04/17 08:23:46;;;;;;;53.00;32.63;;;10.90;99.90;;;;;;5059300;28;20032;-79
2023/04/17 08:26:21;;;;;;;56.33;33.90;;;10.90;99.90;;;;;;5042664;28;20024;-79
2023/04/17 08:28:46;;;;;;;52.03;34.53;;;10.80;99.90;;;;;;5059684;28;20032;-80
2023/04/17 08:31:12;;;;;;;55.28;34.10;;;10.80;99.90;;;;;;5058788;28;20388;-80
2023/04/17 08:33:38;;;;;;;50.90;34.42;;;10.80;99.90;;;;;;5042178;28;20051;-80
2023/04/17 08:36:04;;;;;;;51.55;34.22;;;10.80;99.90;;;;;;5042411;28;20028;-79
2023/04/17 08:38:30;;;;;;;57.50;35.75;;;10.80;99.90;;;;;;5075745;28;20105;-80
2023/04/17 08:41:04;;;;;;;51.38;33.92;;;10.70;99.90;;;;;;5075258;28;20437;-80
2023/04/17 08:43:34;;;;;;;57.47;35.33;;;10.90;99.90;;;;;;5093597;28;20028;-80
2023/04/17 08:45:59;;;;;;;54.83;34.05;;;11.00;99.90;;;;;;5076169;28;20063;-79
2023/04/17 08:48:25;;;;;;;51.25;34.33;;;11.00;99.90;;;;;;5075480;28;20461;-81
2023/04/17 08:50:52;;;;;;;57.08;34.67;;;11.20;99.90;;;;;;5042011;28;20119;-79
2023/04/17 08:53:19;;;;;;;50.88;34.78;;;11.30;99.90;;;;;;5076322;28;20048;-78
2023/04/17 08:55:46;;;;;;;49.95;32.63;;;11.30;99.90;;;;;;5075653;28;20028;-79
2023/04/17 08:58:13;;;;;;;48.83;32.72;;;11.30;99.90;;;;;;5077007;28;20031;-80
2023/04/17 09:00:44;;;;;;;53.70;34.50;;;11.40;99.90;;;;;;5078642;28;20219;-80
2023/04/17 09:03:13;;;;;;;49.28;33.70;;;11.50;99.90;;;;;;5062513;28;20069;-79
2023/04/17 09:05:41;;;;;;;46.10;31.27;;;11.50;99.90;;;;;;5078249;28;20016;-80
2023/04/17 09:08:11;;;;;;;48.92;32.20;;;11.60;99.90;;;;;;5078409;28;20041;-80
2023/04/17 09:10:45;;;;;;;44.50;31.35;;;11.70;99.90;;;;;;5097092;28;20028;-83
2023/04/17 09:13:13;;;;;;;52.40;31.48;;;11.70;99.90;;;;;;5061311;28;20032;-82
2023/04/17 09:15:40;;;;;;;46.83;31.40;;;11.70;99.90;;;;;;5078824;28;20123;-80
2023/04/17 09:18:24;;;;;;;50.67;31.65;;;11.80;99.90;;;;;;5062331;28;20130;-80
2023/04/17 09:20:50;;;;;;;43.13;29.35;;;11.80;99.90;;;;;;5061935;28;20028;-79
2023/04/17 09:23:16;;;;;;;44.83;27.92;;;11.90;99.90;;;;;;5061853;28;20544;-79
2023/04/17 09:25:42;;;;;;;42.85;27.80;;;12.00;99.90;;;;;;5078296;28;20024;-79
2023/04/17 09:28:13;;;;;;;42.85;29.20;;;12.10;99.90;;;;;;5079116;28;20040;-79
2023/04/17 09:30:42;;;;;;;41.20;28.02;;;12.10;99.90;;;;;;5078980;28;20031;-79
2023/04/17 09:33:10;;;;;;;44.08;28.52;;;12.10;99.90;;;;;;5061926;28;20024;-78
2023/04/17 09:35:37;;;;;;;39.00;27.13;;;12.10;99.90;;;;;;5061477;28;20035;-78
2023/04/17 09:38:03;;;;;;;42.33;27.05;;;12.10;99.90;;;;;;5061686;28;20036;-79
2023/04/17 09:40:39;;;;;;;39.45;27.65;;;12.20;99.90;;;;;;5078215;28;20035;-79
2023/04/17 09:43:07;;;;;;;38.33;26.67;;;12.20;99.90;;;;;;5078013;28;20059;-79
2023/04/17 09:45:39;;;;;;;40.85;27.55;;;12.10;99.90;;;;;;5061824;28;20123;-78
2023/04/17 09:48:23;;;;;;;44.50;28.77;;;12.00;99.90;;;;;;5078627;28;20507;-78
2023/04/17 09:50:49;;;;;;;36.67;25.95;;;12.00;99.90;;;;;;5078513;28;20031;-78
2023/04/17 09:53:15;;;;;;;39.00;26.17;;;12.10;99.90;;;;;;5078051;28;20058;-78
2023/04/17 09:55:42;;;;;;;36.95;25.33;;;12.10;99.90;;;;;;5077022;28;20028;-78
2023/04/17 09:58:08;;;;;;;37.58;25.65;;;12.20;99.90;;;;;;5045022;28;20415;-77
2023/04/17 10:00:35;;;;;;;36.00;24.08;;;12.30;99.90;;;;;;5077448;28;20082;-75
2023/04/17 10:03:00;;;;;;;37.35;23.95;;;12.30;99.90;;;;;;5095724;28;20024;-76
2023/04/17 10:05:28;;;;;;;31.52;22.23;;;12.30;99.90;;;;;;5044328;28;20123;-75
2023/04/17 10:07:55;;;;;;;34.88;22.63;;;12.40;99.90;;;;;;5061658;28;20056;-77
2023/04/17 10:10:27;;;;;;;34.35;24.10;;;12.60;99.90;;;;;;5060037;28;20040;-77
2023/04/17 10:12:56;;;;;;;33.08;22.30;;;12.80;99.90;;;;;;5095372;28;20485;-78
2023/04/17 10:15:24;;;;;;;33.65;22.50;;;12.90;99.90;;;;;;5077258;28;20032;-78
2023/04/17 10:17:51;;;;;;;31.83;20.65;;;13.10;99.90;;;;;;5076726;28;20039;-77
2023/04/17 10:20:18;;;;;;;28.95;19.08;;;13.20;99.90;;;;;;5076600;28;20062;-76
2023/04/17 10:22:47;;;;;;;29.40;19.38;;;13.20;99.90;;;;;;5077186;28;20051;-76
2023/04/17 10:25:13;;;;;;;32.22;19.85;;;13.40;99.70;;;;;;5060604;28;20036;-77
2023/04/17 10:27:39;;;;;;;29.10;20.70;;;13.60;99.90;;;;;;5076958;28;20148;-77
2023/04/17 10:30:11;;;;;;;31.15;20.95;;;13.80;99.40;;;;;;5076948;28;20031;-77
2023/04/17 10:32:37;;;;;;;;;;;14.00;98.70;;;;;;5077275;28;20144;-77
2023/04/17 10:35:15;;;;;;;28.15;18.85;;;14.10;98.60;;;;;;5077040;28;19916;-77
2023/04/17 10:37:47;;;;;;;25.65;18.67;;;14.20;98.20;;;;;;5095247;28;20025;-78
2023/04/17 10:40:29;;;;;;;26.77;18.77;;;14.20;96.90;;;;;;5095073;28;20032;-78
2023/04/17 10:43:16;;;;;;;26.50;18.30;;;14.20;96.50;;;;;;5060041;28;20036;-77
2023/04/17 10:46:00;;;;;;;26.08;17.13;;;14.10;96.60;;;;;;5077350;28;20052;-78
2023/04/17 10:48:34;;;;;;;28.40;16.55;;;14.10;95.60;;;;;;5076726;28;20046;-77
2023/04/17 10:51:20;;;;;;;20.50;15.18;;;14.10;95.60;;;;;;5076538;28;20499;-76
2023/04/17 10:53:48;;;;;;;24.33;15.75;;;14.40;95.80;;;;;;5095112;28;20406;-78
2023/04/17 10:56:38;;;;;;;22.60;15.38;;;14.60;94.00;;;;;;5076614;28;20024;-78
2023/04/17 10:59:12;;;;;;;24.15;15.57;;;14.90;94.90;;;;;;5063848;28;20058;-77
2023/04/17 11:01:47;;;;;;;20.65;15.15;;;15.10;94.40;;;;;;5076192;28;20479;-78
2023/04/17 11:04:25;;;;;;;27.83;16.83;;;15.30;93.90;;;;;;5076448;28;20058;-78
2023/04/17 11:06:52;;;;;;;23.95;15.35;;;15.10;92.80;;;;;;5094819;28;20024;-77
2023/04/17 11:09:20;;;;;;;22.55;15.82;;;15.10;92.50;;;;;;5094079;28;20036;-78
2023/04/17 11:11:46;;;;;;;24.95;15.73;;;15.10;92.70;;;;;;5076200;28;20127;-78
2023/04/17 11:14:16;;;;;;;20.80;14.95;;;15.30;92.40;;;;;;5094912;28;20116;-78
2023/04/17 11:16:47;;;;;;;22.42;15.98;;;15.40;93.00;;;;;;5094318;28;20039;-77
2023/04/17 11:19:21;;;;;;;22.52;14.55;;;15.50;91.70;;;;;;5059948;28;20028;-77
2023/04/17 11:21:53;;;;;;;21.65;14.75;;;15.60;92.20;;;;;;5076603;28;20054;-77
2023/04/17 11:24:26;;;;;;;21.50;15.77;;;15.70;91.90;;;;;;5094929;28;20024;-77
2023/04/17 11:26:52;;;;;;;20.30;15.15;;;15.80;90.90;;;;;;5059218;28;20077;-77
2023/04/17 11:29:19;;;;;;;21.00;13.90;;;15.80;89.60;;;;;;5075708;28;20032;-77
2023/04/17 11:31:46;;;;;;;21.75;14.57;;;15.80;90.90;;;;;;5043023;28;20024;-77
2023/04/17 11:34:12;;;;;;;19.40;12.88;;;15.80;88.50;;;;;;5076204;28;20380;-78
2023/04/17 11:36:38;;;;;;;21.52;14.23;;;15.70;87.10;;;;;;5059510;28;20028;-77
2023/04/17 11:39:04;;;;;;;20.90;13.80;;;15.60;86.40;;;;;;5058960;28;20055;-77
2023/04/17 11:41:37;;;;;;;20.30;13.40;;;15.70;86.90;;;;;;5076336;28;20468;-77
2023/04/17 11:44:03;;;;;;;22.83;14.10;;;15.90;87.10;;;;;;5059176;28;20122;-76
2023/04/17 11:46:29;;;;;;;19.25;13.35;;;16.00;87.40;;;;;;5059146;28;20109;-76
2023/04/17 11:48:55;;;;;;;20.83;14.00;;;16.10;87.20;;;;;;5058735;28;20040;-76
2023/04/17 11:51:21;;;;;;;20.45;13.32;;;16.20;85.50;;;;;;5058870;28;20028;-76
2023/04/17 11:53:49;;;;;;;19.13;11.90;;;16.30;84.30;;;;;;5075343;28;20081;-76
2023/04/17 11:56:17;;;;;;;17.52;12.70;;;16.50;84.10;;;;;;5042280;28;20031;-76
2023/04/17 11:58:50;;;;;;;16.75;12.70;;;16.60;85.30;;;;;;5075516;28;20495;-76
2023/04/17 12:01:18;;;;;;;20.02;12.05;;;16.80;80.00;;;;;;5059063;28;20052;-77
2023/04/17 12:03:46;;;;;;;20.15;12.18;;;16.70;78.30;;;;;;5093923;28;20453;-77
2023/04/17 12:06:12;;;;;;;15.32;11.80;;;16.60;77.50;;;;;;5075629;28;20105;-76
2023/04/17 12:08:44;;;;;;;18.33;12.95;;;16.60;79.30;;;;;;5093381;28;20063;-76
2023/04/17 12:11:24;;;;;;;16.10;12.13;;;16.70;79.80;;;;;;5076070;28;20032;-76
2023/04/17 12:13:54;;;;;;;23.55;11.25;;;16.70;77.40;;;;;;5075381;28;20469;-76
2023/04/17 12:16:21;;;;;;;21.00;11.95;;;16.90;75.70;;;;;;5093567;28;20055;-77
2023/04/17 12:18:47;;;;;;;14.48;10.43;;;17.00;74.40;;;;;;5075358;28;20114;-77
2023/04/17 12:21:13;;;;;;;14.52;10.63;;;17.10;75.20;;;;;;5093152;28;20043;-77
2023/04/17 12:23:42;;;;;;;16.50;11.52;;;17.30;72.70;;;;;;5075031;28;20111;-78
2023/04/17 12:26:08;;;;;;;14.07;9.98;;;17.50;72.40;;;;;;5058654;28;20024;-77
2023/04/17 12:28:35;;;;;;;14.57;10.68;;;17.60;72.10;;;;;;5075239;28;20547;-78